Бесовец

Карта отелей и гостиниц, располагающихся рядом с аэропортом Бесовец :

Бесовец
Петрозаводск
Республика Карелия 61° 53' 6.6012" N, 34° 9' 17.3988" E
Код аэродрома ИКАО
ULPB
Код аэродрома RU
УЛПБ
Координаты
N61.88517° E034.15483°
Превышение над уровнем моря
44
Основная полоса
01/19
Курс магнитный
010,5/190,5
Длина основной ВПП
2510
Ширина основной ВПП
48
Покрытие основной ВПП
Твёрдое (бетон)
Освещение ВПП
Постоянное
Тип: 
Аэродром
Класс аэродрома: 
Международный
Принадлежность: 
ГА
Статус: 
Действующий
Сайт: 
airport-petrozavodsk.ru
Страна: 
Россия
Регион: 
Республика Карелия
Город: 
Петрозаводск
Дополнительная информация: 
Эксплуатант: БУ РК «Аэропорт Петрозаводск». Совместного базирования (ФАВТ+МО(ВКС)+ФСБ). Военный индекс: XLPB / ЬЛПБ. PCN 38/R/А/Х/T. Максимальный взлётный вес ВС 150 т.
Схемы аэропортов: 
Погода: 

Авиационная погода в аэропорту Бесовец

Регион: 
Погода METAR: 
ULPB 282200Z AUTO 18001MPS 9999 // NCD 08/07 Q1027 RMK QFE766/1022
Время наблюдения
2022-06-28T22:00:00Z
Температура C
8.0
Точка росы
7.0
Направление ветра
180
Скорость ветра (узлы)
2
Метео видимость
6.21
Облачность
CLR
Нижняя граница облачности (футы)
Явления погоды
Условия полета
VFR
Аэропорт подробнее: 
CLR — нет облаков ниже 3000 м

Найти трансфер

С помощью этой формы Вы можете найти трансфер из аэропорта Бесовец в город, аэропорт или вокзал:

Погода в аэропортах:

Авиационная погода в Новокузнецке

Регион: 
Погода METAR: 
UNWW 282200Z 10001MPS 6000 0200S FG NSC 10/10 Q1008 R19/09//60 NOSIG RMK QFE729
Время наблюдения
2022-06-28T22:00:00Z
Температура C
10.0
Точка росы
10.0
Направление ветра
100
Скорость ветра (узлы)
2
Метео видимость
3.73
Облачность
CLR
Нижняя граница облачности (футы)
Явления погоды
FG
Условия полета
MVFR
Аэропорт подробнее: 
CLR — нет облаков ниже 3000 м
FG – туман (небо не видно, температура воздуха выше нуля или ноль);

Авиационная погода в Закаталы

Регион: 
Погода METAR: 
UBBY 040100Z 08014KT 5000 -SHRA SCT040CB OVC045 15/14 Q1019 NOSIG RMK MT OBSC
Время наблюдения
2022-07-04T01:00:00Z
Температура C
15.0
Точка росы
14.0
Направление ветра
80
Скорость ветра (узлы)
14
Метео видимость
3.11
Облачность
SCT
OVC
Нижняя граница облачности (футы)
4000
4500
Явления погоды
-SHRA
Условия полета
MVFR
SCT – разбросанная отдельная облачность; OVC – сплошная облачность;
-SHRA - слабый ливневой дождь;

Авиационная погода в Магнитогорске

Погода METAR: 
USCM 282200Z 31003MPS 5000 BR SCT040CB 04/02 Q1009 R36/090060 TEMPO 1500 BR RMK QFE719
Время наблюдения
2022-06-28T22:00:00Z
Температура C
4.0
Точка росы
2.0
Направление ветра
310
Скорость ветра (узлы)
6
Метео видимость
3.11
Облачность
SCT
Нижняя граница облачности (футы)
4000
Явления погоды
BR
Условия полета
MVFR
Аэропорт подробнее: 
SCT – разбросанная отдельная облачность;
BR – дымка (видимость от 1 до 9 км);

Авиационная погода в Игнатьево

Регион: 
Погода METAR: 
UHBB 282200Z 35002MPS 0150 0100W R36/M0200N FG VV002 18/18 Q1003 R36/090060 NOSIG RMK QBB060 QFE735/0980
Время наблюдения
2022-06-28T22:00:00Z
Температура C
18.0
Точка росы
18.0
Направление ветра
350
Скорость ветра (узлы)
4
Метео видимость
0.09
Облачность
OVX
Нижняя граница облачности (футы)
0
Явления погоды
FG
Условия полета
LIFR
Аэропорт подробнее: 
FG – туман (небо не видно, температура воздуха выше нуля или ноль);